Time;durP1;ratioP1;P1;durP2;ratioP2;P2;SDS_P1;SDS_P2;PMS_P1;PMS_P2;Temp;Humidity;BMP_temperature;BMP_pressure;BME280_temperature;BME280_humidity;BME280_pressure;Samples;Min_cycle;Max_cycle;Signal;HPM_P1;HPM_P2
2022/10/13 00:01:27;;;;;;;20.37;13.43;;;11.30;99.90;;;;;;5052589;28;20938;-82
2022/10/13 00:03:55;;;;;;;23.07;13.00;;;11.40;99.90;;;;;;5052547;28;20206;-76
2022/10/13 00:06:23;;;;;;;20.77;13.07;;;11.40;99.90;;;;;;5052213;28;20201;-77
2022/10/13 00:08:51;;;;;;;19.67;12.80;;;11.30;99.90;;;;;;5051481;28;20240;-79
2022/10/13 00:11:21;;;;;;;19.20;12.00;;;11.30;99.90;;;;;;5058183;28;20213;-79
2022/10/13 00:13:50;;;;;;;14.70;11.33;;;11.30;99.90;;;;;;5064340;28;20588;-76
2022/10/13 00:16:19;;;;;;;19.57;12.00;;;11.30;99.90;;;;;;5052062;28;20209;-80
2022/10/13 00:18:46;;;;;;;15.83;11.17;;;11.30;99.90;;;;;;5051817;28;20613;-77
2022/10/13 00:21:16;;;;;;;13.57;10.37;;;11.40;99.90;;;;;;5057559;28;20197;-81
2022/10/13 00:23:43;;;;;;;15.50;10.43;;;11.40;99.90;;;;;;5071050;28;20193;-76
2022/10/13 00:26:14;;;;;;;19.27;11.33;;;11.40;99.90;;;;;;5072433;28;20201;-77
2022/10/13 00:28:41;;;;;;;22.23;13.07;;;11.40;99.90;;;;;;5072314;28;20204;-78
2022/10/13 00:31:17;;;;;;;20.17;11.40;;;11.40;99.90;;;;;;5071640;28;20217;-79
2022/10/13 00:33:43;;;;;;;15.73;10.70;;;11.40;99.90;;;;;;5059376;28;20204;-82
2022/10/13 00:36:10;;;;;;;18.37;10.33;;;11.40;99.90;;;;;;5052605;28;20198;-82
2022/10/13 00:38:37;;;;;;;20.97;12.00;;;11.40;99.90;;;;;;5051676;28;20216;-78
2022/10/13 00:41:05;;;;;;;20.00;12.10;;;11.40;99.90;;;;;;5056118;28;20204;-75
2022/10/13 00:43:55;;;;;;;16.83;11.90;;;11.40;99.90;;;;;;5071860;28;20197;-81
2022/10/13 00:46:25;;;;;;;18.27;10.63;;;11.40;99.90;;;;;;5071504;28;20208;-81
2022/10/13 00:48:53;;;;;;;22.43;12.33;;;11.40;99.90;;;;;;5052165;28;20202;-81
2022/10/13 00:51:24;;;;;;;17.30;10.33;;;11.40;99.90;;;;;;5052100;28;20224;-74
2022/10/13 00:53:52;;;;;;;18.83;11.70;;;11.40;99.90;;;;;;5051914;28;20202;-79
2022/10/13 00:56:21;;;;;;;19.43;11.20;;;11.40;99.90;;;;;;5052419;28;20309;-80
2022/10/13 00:58:48;;;;;;;18.80;11.43;;;11.50;99.90;;;;;;5051958;28;20202;-81
2022/10/13 01:01:16;;;;;;;20.83;12.20;;;11.50;99.90;;;;;;5052563;28;20186;-78
2022/10/13 01:03:44;;;;;;;24.07;13.50;;;11.50;99.90;;;;;;5052488;28;20228;-80
2022/10/13 01:06:13;;;;;;;15.47;11.63;;;11.50;99.90;;;;;;5051783;28;20205;-79
2022/10/13 01:08:39;;;;;;;17.33;10.57;;;11.50;99.90;;;;;;5051856;28;20508;-78
2022/10/13 01:11:39;;;;;;;23.40;10.93;;;11.60;99.90;;;;;;5052399;28;20206;-79
2022/10/13 01:14:17;;;;;;;18.47;12.07;;;11.60;99.90;;;;;;5052268;28;20198;-79
2022/10/13 01:16:52;;;;;;;20.70;13.23;;;11.60;99.90;;;;;;5052035;28;20204;-78
2022/10/13 01:19:54;;;;;;;18.37;11.50;;;11.60;99.90;;;;;;5051481;28;20693;-78
2022/10/13 01:22:32;;;;;;;19.20;12.60;;;11.60;99.90;;;;;;5051996;28;20499;-81
2022/10/13 01:25:06;;;;;;;21.73;13.17;;;11.60;99.90;;;;;;5051767;28;20206;-78
2022/10/13 01:27:46;;;;;;;22.70;13.30;;;11.70;99.90;;;;;;5051773;28;20562;-80
2022/10/13 01:30:16;;;;;;;19.97;12.70;;;11.70;99.90;;;;;;5052221;28;20208;-78
2022/10/13 01:32:54;;;;;;;17.10;12.20;;;11.70;99.90;;;;;;5051545;28;20193;-78
2022/10/13 01:35:31;;;;;;;18.77;11.70;;;11.70;99.90;;;;;;5052540;28;20214;-77
2022/10/13 01:38:07;;;;;;;15.57;11.40;;;11.70;99.90;;;;;;5052591;28;20197;-79
2022/10/13 01:40:40;;;;;;;18.63;12.60;;;11.70;99.90;;;;;;5051379;28;20212;-80
2022/10/13 01:43:10;;;;;;;22.27;13.23;;;11.70;99.90;;;;;;5051814;28;20492;-78
2022/10/13 01:45:44;;;;;;;17.97;12.43;;;11.70;99.90;;;;;;5052479;28;20198;-74
2022/10/13 01:48:11;;;;;;;16.67;11.83;;;11.70;99.90;;;;;;5054445;28;20298;-80
2022/10/13 01:50:39;;;;;;;15.73;10.90;;;11.70;99.90;;;;;;5054579;28;20232;-78
2022/10/13 01:53:07;;;;;;;15.67;11.33;;;11.70;99.90;;;;;;5075288;28;20197;-78
2022/10/13 01:55:34;;;;;;;19.53;11.63;;;11.70;99.90;;;;;;5075023;28;20189;-76
2022/10/13 01:58:00;;;;;;;20.80;13.10;;;11.80;99.90;;;;;;5075036;28;20212;-75
2022/10/13 02:00:29;;;;;;;23.73;13.60;;;11.80;99.90;;;;;;5057950;28;20265;-74
2022/10/13 02:03:11;;;;;;;14.10;11.67;;;11.80;99.90;;;;;;5053646;28;20212;-74
2022/10/13 02:05:48;;;;;;;16.50;10.37;;;11.80;99.90;;;;;;5054068;28;20198;-73
2022/10/13 02:08:22;;;;;;;16.37;11.20;;;11.80;99.90;;;;;;5053488;28;20292;-74
2022/10/13 02:10:58;;;;;;;17.80;10.70;;;11.80;99.90;;;;;;5053648;28;20683;-74
2022/10/13 02:13:28;;;;;;;18.30;10.37;;;11.80;99.90;;;;;;5054677;28;20209;-73
2022/10/13 02:15:59;;;;;;;15.93;8.77;;;11.80;99.90;;;;;;5053457;28;20190;-75
2022/10/13 02:18:31;;;;;;;12.37;8.00;;;11.80;99.90;;;;;;5053850;28;20749;-75
2022/10/13 02:20:59;;;;;;;10.30;7.47;;;11.90;99.90;;;;;;5054097;28;20216;-75
2022/10/13 02:23:27;;;;;;;9.07;5.83;;;11.90;99.90;;;;;;5053652;28;20796;-74
2022/10/13 02:25:55;;;;;;;8.83;6.27;;;11.90;99.90;;;;;;5053729;28;20255;-74
2022/10/13 02:28:22;;;;;;;9.93;6.30;;;11.90;99.90;;;;;;5054263;28;20289;-74
2022/10/13 02:30:49;;;;;;;8.63;5.53;;;11.90;99.90;;;;;;5052778;28;20210;-76
2022/10/13 02:33:16;;;;;;;10.17;6.57;;;11.90;99.90;;;;;;5053765;28;20197;-75
2022/10/13 02:35:45;;;;;;;12.27;7.20;;;11.90;99.90;;;;;;5054009;28;20198;-74
2022/10/13 02:38:12;;;;;;;11.47;7.93;;;12.00;99.90;;;;;;5052550;28;20531;-74
2022/10/13 02:40:39;;;;;;;15.27;10.20;;;12.00;99.90;;;;;;5053428;28;20200;-74
2022/10/13 02:43:06;;;;;;;19.10;10.33;;;12.00;99.90;;;;;;5052361;28;20204;-75
2022/10/13 02:45:32;;;;;;;15.63;10.23;;;12.10;99.90;;;;;;5054036;28;20252;-76
2022/10/13 02:48:00;;;;;;;15.87;10.77;;;12.10;99.90;;;;;;5054065;28;20285;-75
2022/10/13 02:50:27;;;;;;;12.47;10.43;;;12.10;99.90;;;;;;5053114;28;20258;-76
2022/10/13 02:52:55;;;;;;;16.20;10.50;;;12.10;99.90;;;;;;5053665;28;20202;-74
2022/10/13 02:55:22;;;;;;;15.00;11.90;;;12.00;99.90;;;;;;5053170;28;20774;-74
2022/10/13 02:57:49;;;;;;;15.40;11.70;;;12.10;99.90;;;;;;5052425;28;20221;-74
2022/10/13 03:00:16;;;;;;;18.07;12.17;;;12.10;99.90;;;;;;5053014;28;20794;-75
2022/10/13 03:02:43;;;;;;;18.90;13.40;;;12.10;99.90;;;;;;5052888;28;20237;-75
2022/10/13 03:05:10;;;;;;;21.07;12.53;;;12.10;99.90;;;;;;5052619;28;20202;-74
2022/10/13 03:07:37;;;;;;;17.57;12.13;;;12.10;99.90;;;;;;5053157;28;20208;-75
2022/10/13 03:10:06;;;;;;;16.70;12.03;;;12.10;99.90;;;;;;5053319;28;20316;-76
2022/10/13 03:12:33;;;;;;;13.70;11.73;;;12.10;99.90;;;;;;5052657;28;20202;-73
2022/10/13 03:15:00;;;;;;;18.00;12.93;;;12.00;99.90;;;;;;5063011;28;20255;-75
2022/10/13 03:17:27;;;;;;;18.37;12.73;;;12.10;99.90;;;;;;5053202;28;20186;-80
2022/10/13 03:19:54;;;;;;;24.23;14.40;;;12.10;99.90;;;;;;5052832;28;20285;-78
2022/10/13 03:22:21;;;;;;;21.37;14.17;;;12.10;99.90;;;;;;5052829;28;20527;-76
2022/10/13 03:24:48;;;;;;;21.47;14.97;;;12.10;99.90;;;;;;5053224;28;20198;-78
2022/10/13 03:27:16;;;;;;;20.03;14.53;;;12.10;99.90;;;;;;5053321;28;20198;-81
2022/10/13 03:29:43;;;;;;;22.03;14.67;;;12.10;99.90;;;;;;5054506;28;20202;-81
2022/10/13 03:32:10;;;;;;;23.40;16.47;;;12.10;99.90;;;;;;5053967;28;20617;-81
2022/10/13 03:34:37;;;;;;;19.40;14.70;;;12.20;99.90;;;;;;5054155;28;20756;-81
2022/10/13 03:37:04;;;;;;;21.67;16.47;;;12.20;99.90;;;;;;5063711;28;20208;-79
2022/10/13 03:39:31;;;;;;;25.53;16.27;;;12.10;99.90;;;;;;5073529;28;20201;-81
2022/10/13 03:41:58;;;;;;;26.23;17.23;;;12.10;99.90;;;;;;5074063;28;20197;-76
2022/10/13 03:44:26;;;;;;;22.57;16.70;;;12.10;99.90;;;;;;5053954;28;20500;-81
2022/10/13 03:46:53;;;;;;;24.00;16.70;;;12.20;99.90;;;;;;5053121;28;20209;-80
2022/10/13 03:49:20;;;;;;;19.87;15.47;;;12.10;99.90;;;;;;5054200;28;20206;-80
2022/10/13 03:51:47;;;;;;;27.83;19.80;;;12.10;99.90;;;;;;5054268;28;20225;-81
2022/10/13 03:54:14;;;;;;;29.23;20.17;;;12.20;99.90;;;;;;5053660;28;20204;-81
2022/10/13 03:56:42;;;;;;;21.43;16.70;;;12.20;99.90;;;;;;5053845;28;20299;-81
2022/10/13 03:59:13;;;;;;;25.23;19.23;;;12.20;99.90;;;;;;5053644;28;20208;-81
2022/10/13 04:01:41;;;;;;;26.83;19.10;;;12.20;99.90;;;;;;5052908;28;20198;-80
2022/10/13 04:04:11;;;;;;;27.63;20.20;;;12.20;99.90;;;;;;5053094;28;20202;-81
2022/10/13 04:06:38;;;;;;;35.93;23.57;;;12.20;99.90;;;;;;5066066;28;20216;-80
2022/10/13 04:09:05;;;;;;;28.17;21.40;;;12.30;99.90;;;;;;5071934;28;20244;-80
2022/10/13 04:11:32;;;;;;;26.97;21.17;;;12.20;99.90;;;;;;5073325;28;20246;-80
2022/10/13 04:13:59;;;;;;;25.77;19.07;;;12.20;99.90;;;;;;5071661;28;20211;-80
2022/10/13 04:16:29;;;;;;;25.50;19.60;;;12.30;99.90;;;;;;5053477;28;20285;-81
2022/10/13 04:18:59;;;;;;;29.43;21.67;;;12.30;99.90;;;;;;5053238;28;20581;-80
2022/10/13 04:21:26;;;;;;;28.43;21.27;;;12.30;99.90;;;;;;5052283;28;20198;-76
2022/10/13 04:23:55;;;;;;;26.67;19.20;;;12.30;99.90;;;;;;5052276;28;20228;-77
2022/10/13 04:26:24;;;;;;;29.07;21.83;;;12.30;99.90;;;;;;5051991;28;20205;-76
2022/10/13 04:28:52;;;;;;;31.77;22.70;;;12.40;99.90;;;;;;5050964;28;20197;-78
2022/10/13 04:31:20;;;;;;;26.43;20.40;;;12.40;99.90;;;;;;5052185;28;20225;-80
2022/10/13 04:33:48;;;;;;;29.33;20.50;;;12.40;99.90;;;;;;5063593;28;20228;-80
2022/10/13 04:36:17;;;;;;;30.87;21.67;;;12.40;99.90;;;;;;5072355;28;20585;-76
2022/10/13 04:38:44;;;;;;;31.20;22.17;;;12.40;99.90;;;;;;5056277;28;20237;-78
2022/10/13 04:41:13;;;;;;;31.00;23.87;;;12.50;99.90;;;;;;5051785;28;20197;-80
2022/10/13 04:43:39;;;;;;;28.97;21.97;;;12.50;99.90;;;;;;5051522;28;20233;-80
2022/10/13 04:46:09;;;;;;;26.67;20.57;;;12.50;99.90;;;;;;5052310;28;20206;-78
2022/10/13 04:48:36;;;;;;;28.30;21.10;;;12.50;99.90;;;;;;5051707;28;20202;-74
2022/10/13 04:51:05;;;;;;;28.53;21.10;;;12.50;99.90;;;;;;5051079;28;20228;-74
2022/10/13 04:53:34;;;;;;;35.43;25.13;;;12.50;99.90;;;;;;5051432;28;20209;-75
2022/10/13 04:56:02;;;;;;;30.33;23.43;;;12.60;99.90;;;;;;5051573;28;20222;-80
2022/10/13 04:58:30;;;;;;;30.37;23.93;;;12.60;99.90;;;;;;5071876;28;20207;-81
2022/10/13 05:00:57;;;;;;;27.93;21.93;;;12.70;99.90;;;;;;5072183;28;20189;-80
2022/10/13 05:03:24;;;;;;;32.60;22.47;;;12.70;99.90;;;;;;5072547;28;20189;-80
2022/10/13 05:05:52;;;;;;;25.40;19.93;;;12.60;99.90;;;;;;5061722;28;20632;-80
2022/10/13 05:08:19;;;;;;;32.50;23.73;;;12.70;99.90;;;;;;5052721;28;20316;-79
2022/10/13 05:10:54;;;;;;;25.50;21.20;;;12.60;99.90;;;;;;5052428;28;20209;-77
2022/10/13 05:13:21;;;;;;;29.40;21.90;;;12.70;99.90;;;;;;5052597;28;20194;-76
2022/10/13 05:15:48;;;;;;;29.73;22.50;;;12.70;99.90;;;;;;5052014;28;20201;-76
2022/10/13 05:18:15;;;;;;;30.13;22.47;;;12.70;99.90;;;;;;5050617;28;20202;-75
2022/10/13 05:20:42;;;;;;;28.80;22.03;;;12.70;99.90;;;;;;5052852;28;20626;-76
2022/10/13 05:23:09;;;;;;;30.63;22.23;;;12.80;99.90;;;;;;5055079;28;20210;-80
2022/10/13 05:25:36;;;;;;;30.20;22.70;;;12.80;99.90;;;;;;5054894;28;20202;-75
2022/10/13 05:28:06;;;;;;;30.90;22.73;;;12.90;99.90;;;;;;5054873;28;20198;-75
2022/10/13 05:30:34;;;;;;;30.10;23.07;;;12.90;99.90;;;;;;5054480;28;20416;-75
2022/10/13 05:33:01;;;;;;;28.20;21.10;;;12.90;99.90;;;;;;5053975;28;20230;-75
2022/10/13 05:35:28;;;;;;;39.67;24.70;;;12.90;99.90;;;;;;5055046;28;20526;-75
2022/10/13 05:37:55;;;;;;;34.37;24.93;;;12.90;99.90;;;;;;5054794;28;20228;-76
2022/10/13 05:40:22;;;;;;;29.10;22.23;;;12.90;99.90;;;;;;5054030;28;20201;-75
2022/10/13 05:42:50;;;;;;;31.80;23.37;;;12.90;99.90;;;;;;5054748;28;20202;-75
2022/10/13 05:45:21;;;;;;;32.47;23.43;;;12.90;99.90;;;;;;5054566;28;20214;-77
2022/10/13 05:47:48;;;;;;;29.27;21.80;;;12.90;99.90;;;;;;5054239;28;20496;-74
2022/10/13 05:50:15;;;;;;;35.60;25.57;;;12.90;99.90;;;;;;5054330;28;20784;-74
2022/10/13 05:52:42;;;;;;;31.10;23.90;;;12.90;99.90;;;;;;5054656;28;20222;-76
2022/10/13 05:55:12;;;;;;;33.53;24.13;;;12.90;99.90;;;;;;5053947;28;20198;-76
2022/10/13 05:57:42;;;;;;;34.17;25.87;;;12.90;99.90;;;;;;5054781;28;20246;-75
2022/10/13 06:00:11;;;;;;;34.20;24.67;;;12.90;99.90;;;;;;5053680;28;20909;-75
2022/10/13 06:02:44;;;;;;;35.07;25.20;;;12.90;99.90;;;;;;5054250;28;20590;-76
2022/10/13 06:05:14;;;;;;;37.00;25.77;;;12.90;99.90;;;;;;5054430;28;20216;-75
2022/10/13 06:07:43;;;;;;;29.80;24.40;;;12.90;99.90;;;;;;5053394;28;20205;-75
2022/10/13 06:10:11;;;;;;;32.40;25.97;;;12.90;99.90;;;;;;5054128;28;20230;-75
2022/10/13 06:12:38;;;;;;;34.33;27.83;;;13.00;99.90;;;;;;5053883;28;20225;-75
2022/10/13 06:15:05;;;;;;;36.53;27.53;;;13.00;99.90;;;;;;5053635;28;20208;-75
2022/10/13 06:17:35;;;;;;;36.30;28.93;;;13.00;99.90;;;;;;5054325;28;20209;-77
2022/10/13 06:20:04;;;;;;;40.77;28.87;;;13.00;99.90;;;;;;5054118;28;20206;-75
2022/10/13 06:22:31;;;;;;;38.97;27.40;;;13.00;99.90;;;;;;5068175;28;20212;-77
2022/10/13 06:24:58;;;;;;;41.43;27.93;;;13.00;99.90;;;;;;5073916;28;20460;-76
2022/10/13 06:27:25;;;;;;;38.47;27.33;;;13.10;99.90;;;;;;5066207;28;20216;-81
2022/10/13 06:29:52;;;;;;;42.87;28.13;;;13.10;99.90;;;;;;5054700;28;20198;-81
2022/10/13 06:32:19;;;;;;;42.60;28.10;;;13.10;99.90;;;;;;5054399;28;20249;-77
2022/10/13 06:34:46;;;;;;;39.33;28.50;;;13.20;99.90;;;;;;5055294;28;20248;-81
2022/10/13 06:37:15;;;;;;;35.40;25.80;;;13.20;99.90;;;;;;5054440;28;20568;-81
2022/10/13 06:39:41;;;;;;;36.30;25.27;;;13.20;99.90;;;;;;5054705;28;20198;-81
2022/10/13 06:42:08;;;;;;;31.73;23.07;;;13.20;99.90;;;;;;5053924;28;20568;-80
2022/10/13 06:44:35;;;;;;;37.03;25.40;;;13.20;99.90;;;;;;5054751;28;20601;-82
2022/10/13 06:47:03;;;;;;;35.27;24.37;;;13.30;99.90;;;;;;5054618;28;20200;-82
2022/10/13 06:49:30;;;;;;;44.20;28.25;;;13.30;99.90;;;;;;5054394;28;20285;-81
2022/10/13 06:51:57;;;;;;;34.90;24.73;;;13.30;99.90;;;;;;5055200;28;20312;-80
2022/10/13 06:54:25;;;;;;;39.47;27.10;;;13.30;99.90;;;;;;5054190;28;20198;-82
2022/10/13 06:56:52;;;;;;;39.20;27.97;;;13.30;99.90;;;;;;5053119;28;20615;-79
2022/10/13 06:59:19;;;;;;;40.17;25.93;;;13.40;99.90;;;;;;5053719;28;20208;-80
2022/10/13 07:01:47;;;;;;;37.80;26.83;;;13.40;99.90;;;;;;5053249;28;20517;-79
2022/10/13 07:04:14;;;;;;;42.53;28.57;;;13.40;99.90;;;;;;5036042;28;20751;-79
2022/10/13 07:06:41;;;;;;;35.90;24.90;;;13.50;99.90;;;;;;5053884;28;20224;-79
2022/10/13 07:09:08;;;;;;;36.87;26.13;;;13.50;99.90;;;;;;5053758;28;20244;-79
2022/10/13 07:11:37;;;;;;;30.53;22.33;;;13.50;99.90;;;;;;5053624;28;20232;-80
2022/10/13 07:14:04;;;;;;;28.63;19.83;;;13.40;99.90;;;;;;5054419;28;20519;-79
2022/10/13 07:16:31;;;;;;;31.20;22.67;;;13.40;99.90;;;;;;5053845;28;20213;-79
2022/10/13 07:18:58;;;;;;;26.60;21.73;;;13.50;99.90;;;;;;5052909;28;20202;-78
2022/10/13 07:21:24;;;;;;;31.20;22.57;;;13.50;99.90;;;;;;5053654;28;20518;-79
2022/10/13 07:23:51;;;;;;;33.80;23.60;;;13.50;99.90;;;;;;5053949;28;20212;-78
2022/10/13 07:26:18;;;;;;;30.17;20.10;;;13.50;99.90;;;;;;5052966;28;20208;-77
2022/10/13 07:28:46;;;;;;;27.83;20.87;;;13.60;99.90;;;;;;5053245;28;20206;-79
2022/10/13 07:31:15;;;;;;;30.67;22.73;;;13.60;99.90;;;;;;5053585;28;20198;-80
2022/10/13 07:33:44;;;;;;;29.77;21.97;;;13.60;99.90;;;;;;5053451;28;20225;-80
2022/10/13 07:36:11;;;;;;;32.00;21.67;;;13.60;99.90;;;;;;5053152;28;20590;-79
2022/10/13 07:38:38;;;;;;;25.50;20.50;;;13.60;99.90;;;;;;5053291;28;20328;-79
2022/10/13 07:41:07;;;;;;;24.67;17.52;;;13.60;99.90;;;;;;5053381;28;20202;-80
2022/10/13 07:43:34;;;;;;;26.37;18.67;;;13.60;99.90;;;;;;5052764;28;20541;-80
2022/10/13 07:46:04;;;;;;;21.70;17.17;;;13.70;99.90;;;;;;5053615;28;20216;-81
2022/10/13 07:48:32;;;;;;;24.80;16.53;;;13.70;99.90;;;;;;5091231;28;20208;-79
2022/10/13 07:50:59;;;;;;;21.73;16.30;;;13.70;99.90;;;;;;5093425;28;20216;-80
2022/10/13 07:53:26;;;;;;;25.43;17.80;;;13.80;99.90;;;;;;5092970;28;20664;-80
2022/10/13 07:55:52;;;;;;;31.30;20.00;;;13.80;99.90;;;;;;5065601;28;20294;-79
2022/10/13 07:58:19;;;;;;;22.25;16.63;;;13.90;99.90;;;;;;5072449;28;20681;-81
2022/10/13 08:00:55;;;;;;;19.73;16.15;;;13.90;99.90;;;;;;5058238;28;20212;-78
2022/10/13 08:03:23;;;;;;;18.65;14.77;;;13.90;99.90;;;;;;5051848;28;20202;-77
2022/10/13 08:05:50;;;;;;;27.90;18.20;;;13.90;99.90;;;;;;5053697;28;20201;-80
2022/10/13 08:08:16;;;;;;;17.43;14.30;;;13.90;99.90;;;;;;5053908;28;20213;-77
2022/10/13 08:10:43;;;;;;;22.25;15.70;;;13.90;99.90;;;;;;5055022;28;20284;-81
2022/10/13 08:13:11;;;;;;;18.55;13.35;;;13.90;99.90;;;;;;5075040;28;20228;-81
2022/10/13 08:15:40;;;;;;;15.80;10.50;;;13.90;99.90;;;;;;5076894;28;20184;-82
2022/10/13 08:18:07;;;;;;;16.47;10.20;;;14.00;99.90;;;;;;5076175;28;20203;-81
2022/10/13 08:20:35;;;;;;;20.38;11.40;;;14.00;99.90;;;;;;5067175;28;20284;-80
2022/10/13 08:23:02;;;;;;;17.67;10.57;;;14.10;99.90;;;;;;5077934;28;20203;-79
2022/10/13 08:25:29;;;;;;;13.57;8.32;;;14.10;99.90;;;;;;5082590;28;20664;-81
2022/10/13 08:27:56;;;;;;;12.95;9.05;;;14.10;99.90;;;;;;5069288;28;20339;-82
2022/10/13 08:30:22;;;;;;;11.50;8.73;;;14.10;99.90;;;;;;5087514;28;20207;-79
2022/10/13 08:32:49;;;;;;;15.48;11.07;;;14.10;99.90;;;;;;5093324;28;20532;-81
2022/10/13 08:35:16;;;;;;;17.17;10.02;;;14.10;99.90;;;;;;5074178;28;20201;-80
2022/10/13 08:37:44;;;;;;;15.33;8.00;;;14.10;99.90;;;;;;5074712;28;20201;-80
2022/10/13 08:40:15;;;;;;;12.48;7.97;;;14.20;99.90;;;;;;5093256;28;20188;-79
2022/10/13 08:42:43;;;;;;;13.98;9.45;;;14.20;99.90;;;;;;5079874;28;20202;-77
2022/10/13 08:45:19;;;;;;;21.50;13.35;;;14.20;99.90;;;;;;5068849;28;20193;-79
2022/10/13 08:47:51;;;;;;;22.93;16.13;;;14.20;99.90;;;;;;5068624;28;20189;-77
2022/10/13 08:50:19;;;;;;;13.77;11.15;;;14.20;99.90;;;;;;5072209;28;20185;-81
2022/10/13 08:52:52;;;;;;;10.23;7.80;;;14.20;99.90;;;;;;5064945;28;20210;-79
2022/10/13 08:55:33;;;;;;;7.70;6.75;;;14.20;99.90;;;;;;5053795;28;20182;-81
2022/10/13 08:58:01;;;;;;;8.93;6.00;;;14.20;99.90;;;;;;5074859;28;20208;-78
2022/10/13 09:00:30;;;;;;;11.70;7.82;;;14.30;99.90;;;;;;5074286;28;20212;-77
2022/10/13 09:03:05;;;;;;;8.43;6.13;;;14.30;99.90;;;;;;5054880;28;20202;-77
2022/10/13 09:05:45;;;;;;;10.77;7.30;;;14.30;99.90;;;;;;5055537;28;20189;-80
2022/10/13 09:08:19;;;;;;;8.15;5.95;;;14.30;99.90;;;;;;5055578;28;20206;-78
2022/10/13 09:10:48;;;;;;;9.10;8.20;;;14.40;99.90;;;;;;5054856;28;20832;-77
2022/10/13 09:13:15;;;;;;;11.53;7.90;;;14.40;99.90;;;;;;5069663;28;20221;-78
2022/10/13 09:15:45;;;;;;;7.35;6.65;;;14.50;99.90;;;;;;5075478;28;20197;-75
2022/10/13 09:18:13;;;;;;;10.90;6.73;;;14.50;99.90;;;;;;5058227;28;20297;-76
2022/10/13 09:20:41;;;;;;;9.47;5.50;;;14.60;99.90;;;;;;5055536;28;20613;-76
2022/10/13 09:23:19;;;;;;;9.55;5.57;;;14.60;99.90;;;;;;5055407;28;20205;-76
2022/10/13 09:25:49;;;;;;;4.63;3.72;;;14.50;99.90;;;;;;5055004;28;20206;-76
2022/10/13 09:28:20;;;;;;;5.38;3.15;;;14.50;99.90;;;;;;5055274;28;20284;-76
2022/10/13 09:30:47;;;;;;;10.40;5.43;;;14.50;99.90;;;;;;5054342;28;20287;-75
2022/10/13 09:33:23;;;;;;;9.50;4.32;;;14.60;99.90;;;;;;5054617;28;20226;-80
2022/10/13 09:36:06;;;;;;;6.68;3.78;;;14.50;99.90;;;;;;5055773;28;20204;-77
2022/10/13 09:38:35;;;;;;;6.32;3.00;;;14.50;99.90;;;;;;5055153;28;20252;-77
2022/10/13 09:41:05;;;;;;;4.88;2.65;;;14.40;99.90;;;;;;5055028;28;20214;-77
2022/10/13 09:43:35;;;;;;;4.05;3.28;;;14.40;99.90;;;;;;5059960;28;20288;-75
2022/10/13 09:46:11;;;;;;;6.75;3.03;;;14.40;99.90;;;;;;5071572;28;20303;-78
2022/10/13 09:48:41;;;;;;;3.70;2.35;;;14.30;99.90;;;;;;5073344;28;20540;-78
2022/10/13 09:51:30;;;;;;;3.10;2.10;;;14.30;99.90;;;;;;5074874;28;20197;-75
2022/10/13 09:53:58;;;;;;;3.53;2.23;;;14.30;99.90;;;;;;5073612;28;20510;-77
2022/10/13 09:56:30;;;;;;;2.80;2.38;;;14.30;99.90;;;;;;5058845;28;20252;-77
2022/10/13 09:59:05;;;;;;;3.88;2.50;;;14.40;99.90;;;;;;5054894;28;20253;-77
2022/10/13 10:01:37;;;;;;;2.13;1.90;;;14.40;99.90;;;;;;5054746;28;20212;-78
2022/10/13 10:04:09;;;;;;;5.38;2.28;;;14.40;99.90;;;;;;5069592;28;20276;-78
2022/10/13 10:06:37;;;;;;;4.40;2.45;;;14.50;99.90;;;;;;5072072;28;20201;-81
2022/10/13 10:09:21;;;;;;;6.00;2.92;;;14.50;99.90;;;;;;5054805;28;20318;-78
2022/10/13 10:11:51;;;;;;;13.05;6.30;;;14.50;99.90;;;;;;5055332;28;20195;-78
2022/10/13 10:14:24;;;;;;;13.55;9.27;;;14.50;99.90;;;;;;5055312;28;20218;-82
2022/10/13 10:16:57;;;;;;;7.70;4.85;;;14.50;99.90;;;;;;5056005;28;20201;-82
2022/10/13 10:19:29;;;;;;;17.85;10.35;;;14.50;99.90;;;;;;5055620;28;20619;-80
2022/10/13 10:22:05;;;;;;;14.90;8.80;;;14.50;99.90;;;;;;5058673;28;20649;-81
2022/10/13 10:24:44;;;;;;;7.38;4.55;;;14.60;99.90;;;;;;5079056;28;20219;-82
2022/10/13 10:27:17;;;;;;;7.63;4.22;;;14.70;99.90;;;;;;5083720;28;20201;-81
2022/10/13 10:29:49;;;;;;;4.05;3.65;;;14.70;99.90;;;;;;5055146;28;20194;-81
2022/10/13 10:32:27;;;;;;;5.10;4.25;;;14.70;99.90;;;;;;5055156;28;20504;-82
2022/10/13 10:35:00;;;;;;;4.65;3.13;;;14.70;99.90;;;;;;5054540;28;20198;-83
2022/10/13 10:37:43;;;;;;;2.88;2.20;;;14.70;99.90;;;;;;5054692;28;20194;-82
2022/10/13 10:40:23;;;;;;;3.47;1.80;;;14.70;99.90;;;;;;5054700;28;20529;-82
2022/10/13 10:43:07;;;;;;;3.80;1.80;;;14.70;99.90;;;;;;5054577;28;20202;-83
2022/10/13 10:45:38;;;;;;;2.65;1.52;;;14.70;99.90;;;;;;5055384;28;20194;-82
2022/10/13 10:48:12;;;;;;;3.38;1.30;;;14.70;99.90;;;;;;5055168;28;20693;-82
2022/10/13 10:50:39;;;;;;;2.15;1.50;;;14.80;99.90;;;;;;5054761;28;20228;-83
2022/10/13 10:53:09;;;;;;;1.88;1.67;;;14.80;99.90;;;;;;5055687;28;20249;-82
2022/10/13 10:55:46;;;;;;;4.47;2.45;;;14.90;99.90;;;;;;5055080;28;20201;-82
2022/10/13 10:58:26;;;;;;;3.65;2.35;;;15.00;99.90;;;;;;5055166;28;20486;-82
2022/10/13 11:00:59;;;;;;;4.35;2.30;;;15.00;99.90;;;;;;5073585;28;20216;-80
2022/10/13 11:03:37;;;;;;;1.97;1.60;;;15.00;99.90;;;;;;5073367;28;20491;-82
2022/10/13 11:06:06;;;;;;;4.72;1.83;;;15.00;99.90;;;;;;5074485;28;20204;-80
2022/10/13 11:08:41;;;;;;;2.63;1.40;;;15.10;99.90;;;;;;5064912;28;20236;-83
2022/10/13 11:11:32;;;;;;;2.58;1.50;;;15.10;99.90;;;;;;5053693;28;20194;-75
2022/10/13 11:14:01;;;;;;;5.75;2.20;;;15.00;99.90;;;;;;5052690;28;20217;-75
2022/10/13 11:16:30;;;;;;;1.80;1.58;;;15.10;99.90;;;;;;5052654;28;20289;-75
2022/10/13 11:19:06;;;;;;;2.80;1.63;;;15.10;99.90;;;;;;5052563;28;20228;-75
2022/10/13 11:22:23;;;;;;;3.58;1.40;;;15.10;99.90;;;;;;5052514;28;20201;-75
2022/10/13 11:25:02;;;;;;;2.20;1.33;;;15.00;99.90;;;;;;5052276;28;20194;-75
2022/10/13 11:27:44;;;;;;;1.15;1.10;;;15.00;99.90;;;;;;5052976;28;20243;-76
2022/10/13 11:30:41;;;;;;;5.28;1.70;;;15.00;99.90;;;;;;5052654;28;20209;-75
2022/10/13 11:33:51;;;;;;;3.65;1.85;;;15.00;99.90;;;;;;5052911;28;20222;-75
2022/10/13 11:36:35;;;;;;;2.22;1.55;;;15.10;99.90;;;;;;5052149;28;20212;-75
2022/10/13 11:39:17;;;;;;;2.15;1.20;;;15.10;99.90;;;;;;5051707;28;20194;-76
2022/10/13 11:41:51;;;;;;;2.35;1.27;;;15.10;99.90;;;;;;5052282;28;20757;-75
2022/10/13 11:44:26;;;;;;;1.60;1.35;;;15.20;99.90;;;;;;5053082;28;20190;-76
2022/10/13 11:47:04;;;;;;;2.47;1.67;;;15.20;99.90;;;;;;5052660;28;20197;-80
2022/10/13 11:49:50;;;;;;;2.30;1.25;;;15.30;99.90;;;;;;5052780;28;20194;-76
2022/10/13 11:52:36;;;;;;;14.25;9.35;;;15.30;99.90;;;;;;5055067;28;20196;-89
2022/10/13 11:55:09;;;;;;;5.60;4.63;;;15.30;99.90;;;;;;5070391;28;20384;-88
2022/10/13 11:57:36;;;;;;;4.38;2.92;;;15.30;99.90;;;;;;5074823;28;20220;-88
2022/10/13 12:00:13;;;;;;;5.22;2.53;;;15.40;99.90;;;;;;5074763;28;20193;-87
2022/10/13 12:02:49;;;;;;;4.18;1.85;;;15.40;99.90;;;;;;5073215;28;20399;-88
2022/10/13 12:05:22;;;;;;;2.03;1.40;;;15.50;99.90;;;;;;5054715;28;20186;-88
2022/10/13 12:07:50;;;;;;;2.72;1.77;;;15.50;99.90;;;;;;5077886;28;20194;-87
2022/10/13 12:10:30;;;;;;;3.05;1.70;;;15.60;99.90;;;;;;5090832;28;20235;-86
2022/10/13 12:12:59;;;;;;;1.95;1.33;;;15.50;99.90;;;;;;5098478;22;20242;-77
2022/10/13 12:15:31;;;;;;;4.00;1.90;;;15.50;99.90;;;;;;5092048;28;20561;-78
2022/10/13 12:17:58;;;;;;;2.78;1.70;;;15.60;99.90;;;;;;5092080;28;20644;-76
2022/10/13 12:20:27;;;;;;;1.65;1.40;;;15.60;99.90;;;;;;5082701;28;20255;-75
2022/10/13 12:22:55;;;;;;;2.55;1.50;;;15.60;99.90;;;;;;5072331;28;20205;-75
2022/10/13 12:25:24;;;;;;;2.05;1.58;;;15.60;99.90;;;;;;5071818;28;20203;-76
2022/10/13 12:27:52;;;;;;;4.90;1.60;;;15.60;99.90;;;;;;5071279;28;20744;-76
2022/10/13 12:30:22;;;;;;;4.65;1.88;;;15.60;99.90;;;;;;5071088;28;20200;-78
2022/10/13 12:32:51;;;;;;;3.05;1.40;;;15.60;99.90;;;;;;5072079;28;20201;-76
2022/10/13 12:35:20;;;;;;;2.03;1.70;;;15.60;99.90;;;;;;5070679;28;20221;-75
2022/10/13 12:37:47;;;;;;;1.65;1.30;;;15.60;99.90;;;;;;5071692;28;20597;-82
2022/10/13 12:40:16;;;;;;;2.35;1.50;;;15.60;99.90;;;;;;5071915;28;20226;-76
2022/10/13 12:42:44;;;;;;;2.85;1.30;;;15.70;99.90;;;;;;5071466;28;20193;-76
2022/10/13 12:45:15;;;;;;;2.55;1.45;;;15.60;99.90;;;;;;5071791;28;20189;-74
2022/10/13 12:47:48;;;;;;;3.50;1.60;;;15.60;99.90;;;;;;5071869;28;20559;-76
2022/10/13 12:50:32;;;;;;;1.52;1.20;;;15.50;99.90;;;;;;5071942;28;20201;-76